sensor_id;sensor_type;location;lat;lon;timestamp;pressure;altitude;pressure_sealevel;temperature;humidity
4598;BME280;62772;48.646;8.906;2023-09-19T00:02:23;95989.66;;;14.80;100.00
4598;BME280;62772;48.646;8.906;2023-09-19T00:07:23;95986.31;;;14.83;100.00
4598;BME280;62772;48.646;8.906;2023-09-19T00:12:24;95993.47;;;14.79;100.00
4598;BME280;62772;48.646;8.906;2023-09-19T00:17:25;95997.75;;;14.80;100.00
4598;BME280;62772;48.646;8.906;2023-09-19T00:22:25;95995.31;;;14.75;100.00
4598;BME280;62772;48.646;8.906;2023-09-19T00:27:26;95992.53;;;14.87;100.00
4598;BME280;62772;48.646;8.906;2023-09-19T00:32:29;95991.97;;;14.94;100.00
4598;BME280;62772;48.646;8.906;2023-09-19T00:37:32;95994.59;;;14.78;100.00
4598;BME280;62772;48.646;8.906;2023-09-19T00:42:32;95995.66;;;14.73;100.00
4598;BME280;62772;48.646;8.906;2023-09-19T00:47:33;95999.13;;;14.90;100.00
4598;BME280;62772;48.646;8.906;2023-09-19T00:52:35;96017.25;;;14.77;100.00
4598;BME280;62772;48.646;8.906;2023-09-19T00:57:40;96009.13;;;14.61;100.00
4598;BME280;62772;48.646;8.906;2023-09-19T01:02:42;95995.69;;;14.61;100.00
4598;BME280;62772;48.646;8.906;2023-09-19T01:07:43;96008.63;;;14.43;100.00
4598;BME280;62772;48.646;8.906;2023-09-19T01:13:05;96011.66;;;14.41;100.00
4598;BME280;62772;48.646;8.906;2023-09-19T01:29:01;96025.84;;;14.13;100.00
4598;BME280;62772;48.646;8.906;2023-09-19T01:34:06;96030.16;;;14.30;100.00
4598;BME280;62772;48.646;8.906;2023-09-19T01:39:10;96024.66;;;14.27;100.00
4598;BME280;62772;48.646;8.906;2023-09-19T01:44:19;96038.00;;;14.23;100.00
4598;BME280;62772;48.646;8.906;2023-09-19T01:49:42;96034.41;;;14.31;100.00
4598;BME280;62772;48.646;8.906;2023-09-19T01:54:57;96040.78;;;14.27;100.00
4598;BME280;62772;48.646;8.906;2023-09-19T02:00:04;96040.59;;;14.20;100.00
4598;BME280;62772;48.646;8.906;2023-09-19T02:05:13;96044.34;;;14.43;100.00
4598;BME280;62772;48.646;8.906;2023-09-19T02:10:22;96042.22;;;14.37;100.00
4598;BME280;62772;48.646;8.906;2023-09-19T02:15:23;96044.28;;;14.15;100.00
4598;BME280;62772;48.646;8.906;2023-09-19T02:20:24;96048.22;;;14.18;100.00
4598;BME280;62772;48.646;8.906;2023-09-19T02:25:27;96044.97;;;14.12;100.00
4598;BME280;62772;48.646;8.906;2023-09-19T02:30:29;96048.59;;;13.91;100.00
4598;BME280;62772;48.646;8.906;2023-09-19T02:35:30;96059.22;;;14.00;100.00
4598;BME280;62772;48.646;8.906;2023-09-19T02:40:36;96061.47;;;13.86;100.00
4598;BME280;62772;48.646;8.906;2023-09-19T02:45:36;96058.28;;;14.21;100.00
4598;BME280;62772;48.646;8.906;2023-09-19T02:50:37;96066.63;;;14.31;100.00
4598;BME280;62772;48.646;8.906;2023-09-19T02:55:39;96062.59;;;14.38;100.00
4598;BME280;62772;48.646;8.906;2023-09-19T03:00:43;96071.91;;;14.28;100.00
4598;BME280;62772;48.646;8.906;2023-09-19T03:05:48;96078.38;;;14.27;100.00
4598;BME280;62772;48.646;8.906;2023-09-19T03:10:50;96076.50;;;14.27;100.00
4598;BME280;62772;48.646;8.906;2023-09-19T03:15:54;96076.50;;;14.27;100.00
4598;BME280;62772;48.646;8.906;2023-09-19T03:20:59;96088.13;;;14.31;100.00
4598;BME280;62772;48.646;8.906;2023-09-19T03:26:00;96090.03;;;14.31;100.00
4598;BME280;62772;48.646;8.906;2023-09-19T03:31:04;96083.22;;;14.33;100.00
4598;BME280;62772;48.646;8.906;2023-09-19T03:36:07;96095.13;;;14.48;100.00
4598;BME280;62772;48.646;8.906;2023-09-19T03:41:10;96089.53;;;14.66;100.00
4598;BME280;62772;48.646;8.906;2023-09-19T03:46:15;96084.91;;;14.66;100.00
4598;BME280;62772;48.646;8.906;2023-09-19T03:51:16;96095.72;;;14.42;100.00
4598;BME280;62772;48.646;8.906;2023-09-19T03:56:17;96093.41;;;14.15;100.00
4598;BME280;62772;48.646;8.906;2023-09-19T04:01:17;96083.41;;;14.28;100.00
4598;BME280;62772;48.646;8.906;2023-09-19T04:06:18;96089.66;;;14.57;100.00
4598;BME280;62772;48.646;8.906;2023-09-19T04:11:19;96083.28;;;14.49;100.00
4598;BME280;62772;48.646;8.906;2023-09-19T04:16:20;96084.66;;;14.31;100.00
4598;BME280;62772;48.646;8.906;2023-09-19T04:21:20;96090.75;;;14.56;100.00
4598;BME280;62772;48.646;8.906;2023-09-19T04:26:21;96081.25;;;14.59;100.00
4598;BME280;62772;48.646;8.906;2023-09-19T04:31:22;96091.78;;;14.51;100.00
4598;BME280;62772;48.646;8.906;2023-09-19T04:36:22;96099.34;;;14.21;100.00
4598;BME280;62772;48.646;8.906;2023-09-19T04:41:23;96100.78;;;14.31;100.00
4598;BME280;62772;48.646;8.906;2023-09-19T04:46:23;96103.09;;;14.45;100.00
4598;BME280;62772;48.646;8.906;2023-09-19T04:51:24;96116.31;;;14.38;100.00
4598;BME280;62772;48.646;8.906;2023-09-19T04:56:25;96115.22;;;14.26;100.00
4598;BME280;62772;48.646;8.906;2023-09-19T05:01:26;96120.59;;;14.26;100.00
4598;BME280;62772;48.646;8.906;2023-09-19T05:06:27;96131.47;;;14.18;100.00
4598;BME280;62772;48.646;8.906;2023-09-19T05:11:27;96135.50;;;14.24;100.00
4598;BME280;62772;48.646;8.906;2023-09-19T05:16:30;96152.38;;;14.00;100.00
4598;BME280;62772;48.646;8.906;2023-09-19T05:21:34;96149.25;;;14.22;100.00
4598;BME280;62772;48.646;8.906;2023-09-19T05:26:35;96151.81;;;14.31;100.00
4598;BME280;62772;48.646;8.906;2023-09-19T05:31:35;96153.81;;;14.34;100.00
4598;BME280;62772;48.646;8.906;2023-09-19T05:36:41;96160.09;;;14.38;100.00
4598;BME280;62772;48.646;8.906;2023-09-19T05:41:41;96158.63;;;14.41;100.00
4598;BME280;62772;48.646;8.906;2023-09-19T05:46:42;96175.97;;;14.43;100.00
4598;BME280;62772;48.646;8.906;2023-09-19T05:51:43;96190.66;;;14.33;100.00
4598;BME280;62772;48.646;8.906;2023-09-19T05:56:43;96192.88;;;14.44;100.00
4598;BME280;62772;48.646;8.906;2023-09-19T06:01:47;96198.50;;;14.02;100.00
4598;BME280;62772;48.646;8.906;2023-09-19T06:06:47;96206.09;;;14.24;100.00
4598;BME280;62772;48.646;8.906;2023-09-19T06:11:48;96237.28;;;14.04;100.00
4598;BME280;62772;48.646;8.906;2023-09-19T06:16:49;96238.97;;;14.09;100.00
4598;BME280;62772;48.646;8.906;2023-09-19T06:21:49;96241.66;;;13.96;100.00
4598;BME280;62772;48.646;8.906;2023-09-19T06:26:50;96245.38;;;14.17;100.00
4598;BME280;62772;48.646;8.906;2023-09-19T06:31:52;96235.50;;;13.96;100.00
4598;BME280;62772;48.646;8.906;2023-09-19T06:36:53;96235.59;;;14.00;100.00
4598;BME280;62772;48.646;8.906;2023-09-19T06:41:55;96233.16;;;14.07;100.00
4598;BME280;62772;48.646;8.906;2023-09-19T06:46:56;96243.34;;;14.13;100.00
4598;BME280;62772;48.646;8.906;2023-09-19T06:51:56;96249.19;;;14.28;100.00
4598;BME280;62772;48.646;8.906;2023-09-19T06:56:57;96249.28;;;14.31;100.00
4598;BME280;62772;48.646;8.906;2023-09-19T07:02:00;96245.59;;;14.36;100.00
4598;BME280;62772;48.646;8.906;2023-09-19T07:07:01;96249.09;;;14.37;100.00
4598;BME280;62772;48.646;8.906;2023-09-19T07:12:01;96258.50;;;14.43;100.00
4598;BME280;62772;48.646;8.906;2023-09-19T07:17:02;96263.06;;;14.42;100.00
4598;BME280;62772;48.646;8.906;2023-09-19T07:22:04;96260.81;;;14.57;100.00
4598;BME280;62772;48.646;8.906;2023-09-19T07:27:04;96268.00;;;14.52;100.00
4598;BME280;62772;48.646;8.906;2023-09-19T07:32:05;96266.81;;;14.62;100.00
4598;BME280;62772;48.646;8.906;2023-09-19T07:37:07;96273.63;;;14.72;100.00
4598;BME280;62772;48.646;8.906;2023-09-19T07:42:10;96275.53;;;14.72;100.00
4598;BME280;62772;48.646;8.906;2023-09-19T07:47:11;96279.00;;;14.72;100.00
4598;BME280;62772;48.646;8.906;2023-09-19T07:52:12;96274.81;;;14.87;100.00
4598;BME280;62772;48.646;8.906;2023-09-19T07:57:13;96280.28;;;15.03;100.00
4598;BME280;62772;48.646;8.906;2023-09-19T08:02:15;96286.09;;;15.17;100.00
4598;BME280;62772;48.646;8.906;2023-09-19T08:07:18;96297.94;;;15.29;100.00
4598;BME280;62772;48.646;8.906;2023-09-19T08:12:19;96287.47;;;15.11;100.00
4598;BME280;62772;48.646;8.906;2023-09-19T08:17:24;96313.75;;;15.30;100.00
4598;BME280;62772;48.646;8.906;2023-09-19T08:22:24;96314.78;;;15.26;100.00
4598;BME280;62772;48.646;8.906;2023-09-19T08:27:25;96323.88;;;15.21;100.00
4598;BME280;62772;48.646;8.906;2023-09-19T08:32:29;96313.31;;;15.28;100.00
4598;BME280;62772;48.646;8.906;2023-09-19T08:37:29;96326.66;;;15.37;100.00
4598;BME280;62772;48.646;8.906;2023-09-19T08:42:30;96319.50;;;15.57;100.00
4598;BME280;62772;48.646;8.906;2023-09-19T08:47:34;96329.28;;;15.49;100.00
4598;BME280;62772;48.646;8.906;2023-09-19T08:52:41;96341.03;;;15.57;100.00
4598;BME280;62772;48.646;8.906;2023-09-19T08:57:42;96344.75;;;15.52;100.00
4598;BME280;62772;48.646;8.906;2023-09-19T09:02:44;96342.28;;;15.59;100.00
4598;BME280;62772;48.646;8.906;2023-09-19T09:07:45;96352.16;;;15.55;100.00
4598;BME280;62772;48.646;8.906;2023-09-19T09:12:54;96354.19;;;15.46;100.00
4598;BME280;62772;48.646;8.906;2023-09-19T09:17:57;96360.91;;;15.52;100.00
4598;BME280;62772;48.646;8.906;2023-09-19T09:22:58;96356.31;;;15.53;100.00
4598;BME280;62772;48.646;8.906;2023-09-19T09:28:01;96352.97;;;15.84;100.00
4598;BME280;62772;48.646;8.906;2023-09-19T09:33:09;96349.59;;;16.16;100.00
4598;BME280;62772;48.646;8.906;2023-09-19T09:38:11;96344.91;;;16.28;100.00
4598;BME280;62772;48.646;8.906;2023-09-19T09:43:44;96345.53;;;15.93;100.00
4598;BME280;62772;48.646;8.906;2023-09-19T09:54:18;96350.50;;;16.52;100.00
4598;BME280;62772;48.646;8.906;2023-09-19T09:59:21;96353.47;;;16.46;100.00
4598;BME280;62772;48.646;8.906;2023-09-19T10:04:28;96344.41;;;16.55;100.00
4598;BME280;62772;48.646;8.906;2023-09-19T10:09:45;96357.78;;;16.51;100.00
4598;BME280;62772;48.646;8.906;2023-09-19T10:14:48;96340.16;;;16.54;100.00
4598;BME280;62772;48.646;8.906;2023-09-19T10:19:56;96340.22;;;16.57;100.00
4598;BME280;62772;48.646;8.906;2023-09-19T10:25:06;96343.88;;;16.65;100.00
4598;BME280;62772;48.646;8.906;2023-09-19T10:30:09;96345.81;;;16.80;100.00
4598;BME280;62772;48.646;8.906;2023-09-19T10:35:11;96331.28;;;16.85;100.00
4598;BME280;62772;48.646;8.906;2023-09-19T10:40:14;96331.53;;;17.12;100.00
4598;BME280;62772;48.646;8.906;2023-09-19T10:45:17;96338.41;;;17.09;100.00
4598;BME280;62772;48.646;8.906;2023-09-19T10:50:21;96336.72;;;17.20;100.00
4598;BME280;62772;48.646;8.906;2023-09-19T10:55:25;96342.94;;;17.40;100.00
4598;BME280;62772;48.646;8.906;2023-09-19T11:00:30;96339.00;;;17.38;100.00
4598;BME280;62772;48.646;8.906;2023-09-19T11:05:34;96342.38;;;17.15;100.00
4598;BME280;62772;48.646;8.906;2023-09-19T11:10:48;96336.59;;;16.97;100.00
4598;BME280;62772;48.646;8.906;2023-09-19T11:16:10;96335.88;;;17.00;100.00
4598;BME280;62772;48.646;8.906;2023-09-19T11:31:47;96328.44;;;17.68;100.00
4598;BME280;62772;48.646;8.906;2023-09-19T11:36:49;96328.88;;;17.70;100.00
4598;BME280;62772;48.646;8.906;2023-09-19T11:41:50;96325.09;;;17.75;100.00
4598;BME280;62772;48.646;8.906;2023-09-19T11:46:56;96320.00;;;17.89;100.00
4598;BME280;62772;48.646;8.906;2023-09-19T11:52:00;96315.94;;;17.60;100.00
4598;BME280;62772;48.646;8.906;2023-09-19T11:57:09;96313.00;;;17.69;100.00
4598;BME280;62772;48.646;8.906;2023-09-19T12:02:16;96307.53;;;17.85;100.00
4598;BME280;62772;48.646;8.906;2023-09-19T12:07:21;96298.84;;;17.91;100.00
4598;BME280;62772;48.646;8.906;2023-09-19T12:12:26;96311.22;;;18.16;100.00
4598;BME280;62772;48.646;8.906;2023-09-19T12:17:37;96299.56;;;18.11;100.00
4598;BME280;62772;48.646;8.906;2023-09-19T12:22:45;96293.88;;;18.17;100.00
4598;BME280;62772;48.646;8.906;2023-09-19T12:27:48;96286.53;;;18.40;100.00
4598;BME280;62772;48.646;8.906;2023-09-19T12:32:55;96289.91;;;18.34;100.00
4598;BME280;62772;48.646;8.906;2023-09-19T12:37:58;96283.91;;;18.44;100.00
4598;BME280;62772;48.646;8.906;2023-09-19T12:42:59;96275.00;;;18.43;100.00
4598;BME280;62772;48.646;8.906;2023-09-19T12:48:22;96270.13;;;18.53;100.00
4598;BME280;62772;48.646;8.906;2023-09-19T12:53:29;96273.41;;;18.65;100.00
4598;BME280;62772;48.646;8.906;2023-09-19T12:58:31;96267.06;;;18.81;100.00
4598;BME280;62772;48.646;8.906;2023-09-19T13:03:32;96261.78;;;18.88;99.42
4598;BME280;62772;48.646;8.906;2023-09-19T13:08:37;96260.09;;;18.80;98.56
4598;BME280;62772;48.646;8.906;2023-09-19T13:14:13;96258.53;;;19.06;98.84
4598;BME280;62772;48.646;8.906;2023-09-19T13:24:40;96256.88;;;18.97;99.97
4598;BME280;62772;48.646;8.906;2023-09-19T13:29:42;96250.16;;;19.14;98.44
4598;BME280;62772;48.646;8.906;2023-09-19T13:34:42;96249.41;;;19.14;87.63
4598;BME280;62772;48.646;8.906;2023-09-19T13:39:42;96244.47;;;19.23;91.94
4598;BME280;62772;48.646;8.906;2023-09-19T13:44:47;96248.75;;;19.24;93.05
4598;BME280;62772;48.646;8.906;2023-09-19T13:49:49;96235.47;;;19.46;82.54
4598;BME280;62772;48.646;8.906;2023-09-19T13:54:50;96241.28;;;19.48;86.86
4598;BME280;62772;48.646;8.906;2023-09-19T13:59:52;96234.25;;;19.43;83.49
4598;BME280;62772;48.646;8.906;2023-09-19T14:04:54;96229.41;;;19.60;86.87
4598;BME280;62772;48.646;8.906;2023-09-19T14:09:55;96236.78;;;19.63;85.31
4598;BME280;62772;48.646;8.906;2023-09-19T14:14:55;96234.53;;;19.68;88.18
4598;BME280;62772;48.646;8.906;2023-09-19T14:19:56;96238.34;;;19.60;82.62
4598;BME280;62772;48.646;8.906;2023-09-19T14:24:56;96234.81;;;19.60;82.03
4598;BME280;62772;48.646;8.906;2023-09-19T14:29:57;96223.31;;;19.66;83.84
4598;BME280;62772;48.646;8.906;2023-09-19T14:34:57;96218.78;;;19.44;82.52
4598;BME280;62772;48.646;8.906;2023-09-19T14:39:58;96211.56;;;19.55;81.88
4598;BME280;62772;48.646;8.906;2023-09-19T14:44:58;96198.34;;;19.50;78.88
4598;BME280;62772;48.646;8.906;2023-09-19T14:50:02;96193.19;;;19.37;83.19
4598;BME280;62772;48.646;8.906;2023-09-19T14:55:07;96194.38;;;19.40;81.33
4598;BME280;62772;48.646;8.906;2023-09-19T15:00:11;96192.59;;;19.55;85.32
4598;BME280;62772;48.646;8.906;2023-09-19T15:05:12;96193.53;;;19.32;82.24
4598;BME280;62772;48.646;8.906;2023-09-19T15:10:12;96197.22;;;19.51;81.41
4598;BME280;62772;48.646;8.906;2023-09-19T15:15:13;96202.81;;;19.31;82.83
4598;BME280;62772;48.646;8.906;2023-09-19T15:20:14;96199.91;;;19.47;84.21
4598;BME280;62772;48.646;8.906;2023-09-19T15:25:14;96198.59;;;19.37;83.64
4598;BME280;62772;48.646;8.906;2023-09-19T15:30:16;96192.13;;;19.46;81.06
4598;BME280;62772;48.646;8.906;2023-09-19T15:35:19;96191.34;;;19.45;80.55
4598;BME280;62772;48.646;8.906;2023-09-19T15:40:19;96187.97;;;19.21;86.04
4598;BME280;62772;48.646;8.906;2023-09-19T15:45:20;96186.88;;;19.26;85.26
4598;BME280;62772;48.646;8.906;2023-09-19T15:50:20;96183.78;;;19.28;81.55
4598;BME280;62772;48.646;8.906;2023-09-19T15:55:21;96179.97;;;19.32;89.06
4598;BME280;62772;48.646;8.906;2023-09-19T16:00:22;96176.63;;;19.09;87.12
4598;BME280;62772;48.646;8.906;2023-09-19T16:05:22;96178.84;;;19.33;83.98
4598;BME280;62772;48.646;8.906;2023-09-19T16:10:23;96178.47;;;19.35;83.85
4598;BME280;62772;48.646;8.906;2023-09-19T16:15:23;96179.09;;;19.21;89.49
4598;BME280;62772;48.646;8.906;2023-09-19T16:20:24;96174.38;;;19.14;89.96
4598;BME280;62772;48.646;8.906;2023-09-19T16:25:24;96167.00;;;19.11;90.98
4598;BME280;62772;48.646;8.906;2023-09-19T16:30:25;96176.56;;;19.05;90.48
4598;BME280;62772;48.646;8.906;2023-09-19T16:35:26;96173.84;;;18.75;95.48
4598;BME280;62772;48.646;8.906;2023-09-19T16:40:26;96170.31;;;18.71;97.21
4598;BME280;62772;48.646;8.906;2023-09-19T16:45:27;96167.38;;;18.53;100.00
4598;BME280;62772;48.646;8.906;2023-09-19T16:50:27;96154.69;;;18.30;100.00
4598;BME280;62772;48.646;8.906;2023-09-19T16:55:29;96169.47;;;18.13;100.00
4598;BME280;62772;48.646;8.906;2023-09-19T17:00:29;96165.72;;;17.94;100.00
4598;BME280;62772;48.646;8.906;2023-09-19T17:05:31;96165.38;;;18.23;100.00
4598;BME280;62772;48.646;8.906;2023-09-19T17:10:33;96169.66;;;18.24;100.00
4598;BME280;62772;48.646;8.906;2023-09-19T17:15:34;96167.81;;;18.05;100.00
4598;BME280;62772;48.646;8.906;2023-09-19T17:20:41;96173.38;;;17.27;100.00
4598;BME280;62772;48.646;8.906;2023-09-19T17:25:42;96172.97;;;17.25;100.00
4598;BME280;62772;48.646;8.906;2023-09-19T17:30:43;96172.41;;;17.15;100.00
4598;BME280;62772;48.646;8.906;2023-09-19T17:35:43;96168.81;;;16.72;100.00
4598;BME280;62772;48.646;8.906;2023-09-19T17:40:44;96174.16;;;16.37;100.00
4598;BME280;62772;48.646;8.906;2023-09-19T17:45:45;96180.38;;;16.21;100.00
4598;BME280;62772;48.646;8.906;2023-09-19T17:50:46;96179.75;;;16.28;100.00
4598;BME280;62772;48.646;8.906;2023-09-19T17:55:47;96181.91;;;16.38;100.00
4598;BME280;62772;48.646;8.906;2023-09-19T18:00:49;96185.41;;;16.39;100.00
4598;BME280;62772;48.646;8.906;2023-09-19T18:05:52;96198.31;;;15.69;100.00
4598;BME280;62772;48.646;8.906;2023-09-19T18:10:54;96201.25;;;16.24;100.00
4598;BME280;62772;48.646;8.906;2023-09-19T18:15:55;96204.06;;;15.39;100.00
4598;BME280;62772;48.646;8.906;2023-09-19T18:21:00;96205.31;;;15.42;100.00
4598;BME280;62772;48.646;8.906;2023-09-19T18:26:01;96205.84;;;15.19;100.00
4598;BME280;62772;48.646;8.906;2023-09-19T18:31:08;96209.28;;;14.92;100.00
4598;BME280;62772;48.646;8.906;2023-09-19T18:36:08;96217.28;;;14.63;100.00
4598;BME280;62772;48.646;8.906;2023-09-19T18:41:11;96218.00;;;14.60;100.00
4598;BME280;62772;48.646;8.906;2023-09-19T18:46:12;96218.88;;;14.40;100.00
4598;BME280;62772;48.646;8.906;2023-09-19T18:51:14;96217.28;;;14.63;100.00
4598;BME280;62772;48.646;8.906;2023-09-19T18:56:15;96228.25;;;14.71;100.00
4598;BME280;62772;48.646;8.906;2023-09-19T19:01:15;96235.44;;;14.54;100.00
4598;BME280;62772;48.646;8.906;2023-09-19T19:06:16;96243.81;;;14.40;100.00
4598;BME280;62772;48.646;8.906;2023-09-19T19:11:17;96238.66;;;14.23;100.00
4598;BME280;62772;48.646;8.906;2023-09-19T19:16:19;96243.16;;;14.56;100.00
4598;BME280;62772;48.646;8.906;2023-09-19T19:21:20;96246.03;;;14.50;100.00
4598;BME280;62772;48.646;8.906;2023-09-19T19:26:23;96246.59;;;13.61;100.00
4598;BME280;62772;48.646;8.906;2023-09-19T19:31:24;96258.97;;;13.32;100.00
4598;BME280;62772;48.646;8.906;2023-09-19T19:36:25;96257.63;;;12.84;100.00
4598;BME280;62772;48.646;8.906;2023-09-19T19:41:26;96268.13;;;12.68;100.00
4598;BME280;62772;48.646;8.906;2023-09-19T19:46:27;96259.28;;;12.67;100.00
4598;BME280;62772;48.646;8.906;2023-09-19T19:51:27;96258.63;;;12.70;100.00
4598;BME280;62772;48.646;8.906;2023-09-19T19:56:28;96268.56;;;13.42;100.00
4598;BME280;62772;48.646;8.906;2023-09-19T20:01:30;96268.88;;;13.74;100.00
4598;BME280;62772;48.646;8.906;2023-09-19T20:06:31;96270.53;;;14.12;100.00
4598;BME280;62772;48.646;8.906;2023-09-19T20:11:31;96268.34;;;13.05;100.00
4598;BME280;62772;48.646;8.906;2023-09-19T20:16:33;96264.59;;;12.97;100.00
4598;BME280;62772;48.646;8.906;2023-09-19T20:21:36;96270.34;;;12.27;100.00
4598;BME280;62772;48.646;8.906;2023-09-19T20:26:40;96264.47;;;12.43;100.00
4598;BME280;62772;48.646;8.906;2023-09-19T20:31:43;96271.53;;;12.47;100.00
4598;BME280;62772;48.646;8.906;2023-09-19T20:36:44;96270.44;;;13.20;100.00
4598;BME280;62772;48.646;8.906;2023-09-19T20:41:45;96274.03;;;13.03;100.00
4598;BME280;62772;48.646;8.906;2023-09-19T20:46:46;96270.69;;;13.06;100.00
4598;BME280;62772;48.646;8.906;2023-09-19T20:51:49;96268.34;;;13.47;100.00
4598;BME280;62772;48.646;8.906;2023-09-19T20:56:49;96268.34;;;13.05;100.00
4598;BME280;62772;48.646;8.906;2023-09-19T21:01:52;96264.56;;;13.06;100.00
4598;BME280;62772;48.646;8.906;2023-09-19T21:06:55;96260.22;;;12.72;100.00
4598;BME280;62772;48.646;8.906;2023-09-19T21:11:56;96266.31;;;13.02;100.00
4598;BME280;62772;48.646;8.906;2023-09-19T21:16:56;96280.75;;;13.39;100.00
4598;BME280;62772;48.646;8.906;2023-09-19T21:21:57;96277.56;;;12.65;100.00
4598;BME280;62772;48.646;8.906;2023-09-19T21:27:01;96274.97;;;12.57;100.00
4598;BME280;62772;48.646;8.906;2023-09-19T21:32:04;96272.63;;;12.46;100.00
4598;BME280;62772;48.646;8.906;2023-09-19T21:37:05;96274.78;;;12.83;100.00
4598;BME280;62772;48.646;8.906;2023-09-19T21:42:08;96268.69;;;12.44;100.00
4598;BME280;62772;48.646;8.906;2023-09-19T21:47:08;96275.19;;;12.43;100.00
4598;BME280;62772;48.646;8.906;2023-09-19T21:52:10;96272.50;;;12.04;100.00
4598;BME280;62772;48.646;8.906;2023-09-19T21:57:10;96267.59;;;12.06;100.00
4598;BME280;62772;48.646;8.906;2023-09-19T22:02:11;96264.53;;;12.25;100.00
4598;BME280;62772;48.646;8.906;2023-09-19T22:07:11;96263.16;;;12.10;100.00
4598;BME280;62772;48.646;8.906;2023-09-19T22:12:12;96262.03;;;12.50;100.00
4598;BME280;62772;48.646;8.906;2023-09-19T22:17:13;96265.53;;;12.50;100.00
4598;BME280;62772;48.646;8.906;2023-09-19T22:22:14;96266.66;;;11.85;100.00
4598;BME280;62772;48.646;8.906;2023-09-19T22:27:17;96264.47;;;11.87;100.00
4598;BME280;62772;48.646;8.906;2023-09-19T22:32:20;96274.38;;;12.42;100.00
4598;BME280;62772;48.646;8.906;2023-09-19T22:37:20;96271.66;;;12.51;100.00
4598;BME280;62772;48.646;8.906;2023-09-19T22:42:24;96271.94;;;12.28;100.00
4598;BME280;62772;48.646;8.906;2023-09-19T22:47:25;96274.63;;;12.20;100.00
4598;BME280;62772;48.646;8.906;2023-09-19T22:52:27;96272.56;;;12.25;100.00
4598;BME280;62772;48.646;8.906;2023-09-19T22:57:29;96265.94;;;11.58;100.00
4598;BME280;62772;48.646;8.906;2023-09-19T23:02:30;96281.09;;;12.19;100.00
4598;BME280;62772;48.646;8.906;2023-09-19T23:07:30;96278.94;;;12.03;100.00
4598;BME280;62772;48.646;8.906;2023-09-19T23:12:31;96278.41;;;11.36;100.00
4598;BME280;62772;48.646;8.906;2023-09-19T23:17:32;96276.97;;;11.39;100.00
4598;BME280;62772;48.646;8.906;2023-09-19T23:22:36;96284.94;;;11.83;100.00
4598;BME280;62772;48.646;8.906;2023-09-19T23:27:36;96278.91;;;12.12;100.00
4598;BME280;62772;48.646;8.906;2023-09-19T23:32:37;96278.81;;;12.00;100.00
4598;BME280;62772;48.646;8.906;2023-09-19T23:37:37;96277.44;;;12.23;100.00
4598;BME280;62772;48.646;8.906;2023-09-19T23:42:38;96276.97;;;11.48;100.00
4598;BME280;62772;48.646;8.906;2023-09-19T23:47:40;96268.44;;;11.80;100.00
4598;BME280;62772;48.646;8.906;2023-09-19T23:52:41;96259.75;;;11.92;100.00
4598;BME280;62772;48.646;8.906;2023-09-19T23:57:42;96266.34;;;12.04;100.00
